sensor_id;sensor_type;location;lat;lon;timestamp;P1;durP1;ratioP1;P2;durP2;ratioP2
55758;SDS011;41678;52.126;20.664;2024-03-22T00:04:31;56.00;;;23.42;;
55758;SDS011;41678;52.126;20.664;2024-03-22T00:09:51;48.47;;;23.23;;
55758;SDS011;41678;52.126;20.664;2024-03-22T00:15:11;62.22;;;22.95;;
55758;SDS011;41678;52.126;20.664;2024-03-22T00:20:30;59.28;;;24.95;;
55758;SDS011;41678;52.126;20.664;2024-03-22T00:25:50;56.20;;;25.02;;
55758;SDS011;41678;52.126;20.664;2024-03-22T00:31:10;55.75;;;23.85;;
55758;SDS011;41678;52.126;20.664;2024-03-22T00:36:29;50.75;;;23.20;;
55758;SDS011;41678;52.126;20.664;2024-03-22T00:41:49;64.75;;;27.08;;
55758;SDS011;41678;52.126;20.664;2024-03-22T00:47:09;64.80;;;25.55;;
55758;SDS011;41678;52.126;20.664;2024-03-22T00:52:28;54.97;;;26.13;;
55758;SDS011;41678;52.126;20.664;2024-03-22T00:57:48;47.00;;;23.77;;
55758;SDS011;41678;52.126;20.664;2024-03-22T01:03:08;59.30;;;24.98;;
55758;SDS011;41678;52.126;20.664;2024-03-22T01:08:29;63.50;;;27.63;;
55758;SDS011;41678;52.126;20.664;2024-03-22T01:13:49;59.13;;;26.13;;
55758;SDS011;41678;52.126;20.664;2024-03-22T01:19:08;55.75;;;26.15;;
55758;SDS011;41678;52.126;20.664;2024-03-22T01:24:28;61.65;;;26.17;;
55758;SDS011;41678;52.126;20.664;2024-03-22T01:29:47;65.20;;;27.10;;
55758;SDS011;41678;52.126;20.664;2024-03-22T01:35:07;59.60;;;26.13;;
55758;SDS011;41678;52.126;20.664;2024-03-22T01:40:28;55.42;;;26.40;;
55758;SDS011;41678;52.126;20.664;2024-03-22T01:45:47;58.95;;;25.60;;
55758;SDS011;41678;52.126;20.664;2024-03-22T01:51:08;44.50;;;21.02;;
55758;SDS011;41678;52.126;20.664;2024-03-22T01:56:28;56.67;;;25.77;;
55758;SDS011;41678;52.126;20.664;2024-03-22T02:01:48;63.55;;;27.77;;
55758;SDS011;41678;52.126;20.664;2024-03-22T02:07:08;63.72;;;25.35;;
55758;SDS011;41678;52.126;20.664;2024-03-22T02:12:28;55.22;;;26.85;;
55758;SDS011;41678;52.126;20.664;2024-03-22T02:17:48;64.25;;;28.35;;
55758;SDS011;41678;52.126;20.664;2024-03-22T02:23:08;59.75;;;26.95;;
55758;SDS011;41678;52.126;20.664;2024-03-22T02:28:28;65.18;;;26.80;;
55758;SDS011;41678;52.126;20.664;2024-03-22T02:33:48;63.63;;;28.00;;
55758;SDS011;41678;52.126;20.664;2024-03-22T02:39:08;61.20;;;25.52;;
55758;SDS011;41678;52.126;20.664;2024-03-22T02:44:27;62.13;;;26.60;;
55758;SDS011;41678;52.126;20.664;2024-03-22T02:49:47;50.17;;;23.63;;
55758;SDS011;41678;52.126;20.664;2024-03-22T02:55:07;51.75;;;24.60;;
55758;SDS011;41678;52.126;20.664;2024-03-22T03:00:27;51.33;;;23.02;;
55758;SDS011;41678;52.126;20.664;2024-03-22T03:05:46;57.20;;;25.90;;
55758;SDS011;41678;52.126;20.664;2024-03-22T03:11:06;60.58;;;23.90;;
55758;SDS011;41678;52.126;20.664;2024-03-22T03:16:25;49.03;;;21.48;;
55758;SDS011;41678;52.126;20.664;2024-03-22T03:21:45;44.83;;;19.35;;
55758;SDS011;41678;52.126;20.664;2024-03-22T03:27:04;46.13;;;20.08;;
55758;SDS011;41678;52.126;20.664;2024-03-22T03:32:24;39.47;;;18.63;;
55758;SDS011;41678;52.126;20.664;2024-03-22T03:37:44;40.55;;;17.63;;
55758;SDS011;41678;52.126;20.664;2024-03-22T03:43:03;42.67;;;20.15;;
55758;SDS011;41678;52.126;20.664;2024-03-22T03:48:23;44.83;;;19.77;;
55758;SDS011;41678;52.126;20.664;2024-03-22T03:53:43;40.45;;;17.85;;
55758;SDS011;41678;52.126;20.664;2024-03-22T03:59:03;46.70;;;19.02;;
55758;SDS011;41678;52.126;20.664;2024-03-22T04:04:22;42.55;;;19.42;;
55758;SDS011;41678;52.126;20.664;2024-03-22T04:09:42;49.60;;;20.52;;
55758;SDS011;41678;52.126;20.664;2024-03-22T04:15:02;35.63;;;16.33;;
55758;SDS011;41678;52.126;20.664;2024-03-22T04:20:22;40.15;;;17.02;;
55758;SDS011;41678;52.126;20.664;2024-03-22T04:25:51;37.97;;;16.60;;
55758;SDS011;41678;52.126;20.664;2024-03-22T04:31:13;45.92;;;18.27;;
55758;SDS011;41678;52.126;20.664;2024-03-22T04:36:33;46.30;;;18.20;;
55758;SDS011;41678;52.126;20.664;2024-03-22T04:41:53;44.03;;;18.95;;
55758;SDS011;41678;52.126;20.664;2024-03-22T04:47:13;43.10;;;18.58;;
55758;SDS011;41678;52.126;20.664;2024-03-22T04:52:33;39.38;;;17.05;;
55758;SDS011;41678;52.126;20.664;2024-03-22T04:57:53;44.58;;;19.17;;
55758;SDS011;41678;52.126;20.664;2024-03-22T05:03:13;43.75;;;17.23;;
55758;SDS011;41678;52.126;20.664;2024-03-22T05:08:34;50.38;;;17.80;;
55758;SDS011;41678;52.126;20.664;2024-03-22T05:13:54;48.35;;;17.83;;
55758;SDS011;41678;52.126;20.664;2024-03-22T05:19:14;46.15;;;20.30;;
55758;SDS011;41678;52.126;20.664;2024-03-22T05:24:34;43.70;;;18.70;;
55758;SDS011;41678;52.126;20.664;2024-03-22T05:29:54;42.80;;;18.38;;
55758;SDS011;41678;52.126;20.664;2024-03-22T05:35:14;41.13;;;16.65;;
55758;SDS011;41678;52.126;20.664;2024-03-22T05:40:37;44.40;;;17.00;;
55758;SDS011;41678;52.126;20.664;2024-03-22T05:46:00;47.05;;;17.52;;
55758;SDS011;41678;52.126;20.664;2024-03-22T05:51:20;43.17;;;14.35;;
55758;SDS011;41678;52.126;20.664;2024-03-22T05:56:40;41.40;;;17.15;;
55758;SDS011;41678;52.126;20.664;2024-03-22T06:02:00;44.30;;;17.15;;
55758;SDS011;41678;52.126;20.664;2024-03-22T06:14:48;43.35;;;17.85;;
55758;SDS011;41678;52.126;20.664;2024-03-22T06:20:10;41.38;;;16.02;;
55758;SDS011;41678;52.126;20.664;2024-03-22T06:25:30;42.00;;;17.73;;
55758;SDS011;41678;52.126;20.664;2024-03-22T06:30:51;33.17;;;16.23;;
55758;SDS011;41678;52.126;20.664;2024-03-22T06:36:10;37.95;;;15.02;;
55758;SDS011;41678;52.126;20.664;2024-03-22T06:41:30;32.38;;;15.52;;
55758;SDS011;41678;52.126;20.664;2024-03-22T06:46:49;41.08;;;16.90;;
55758;SDS011;41678;52.126;20.664;2024-03-22T06:52:09;35.00;;;14.52;;
55758;SDS011;41678;52.126;20.664;2024-03-22T06:57:29;36.13;;;15.40;;
55758;SDS011;41678;52.126;20.664;2024-03-22T07:02:49;37.03;;;15.40;;
55758;SDS011;41678;52.126;20.664;2024-03-22T07:08:09;36.67;;;15.80;;
55758;SDS011;41678;52.126;20.664;2024-03-22T07:13:29;31.85;;;15.15;;
55758;SDS011;41678;52.126;20.664;2024-03-22T07:18:48;42.05;;;17.73;;
55758;SDS011;41678;52.126;20.664;2024-03-22T07:24:08;49.55;;;20.27;;
55758;SDS011;41678;52.126;20.664;2024-03-22T07:29:28;48.67;;;18.23;;
55758;SDS011;41678;52.126;20.664;2024-03-22T07:34:48;48.28;;;18.98;;
55758;SDS011;41678;52.126;20.664;2024-03-22T07:40:08;50.78;;;18.25;;
55758;SDS011;41678;52.126;20.664;2024-03-22T07:45:28;47.53;;;19.90;;
55758;SDS011;41678;52.126;20.664;2024-03-22T07:50:55;45.95;;;18.92;;
55758;SDS011;41678;52.126;20.664;2024-03-22T07:56:15;50.60;;;19.55;;
55758;SDS011;41678;52.126;20.664;2024-03-22T08:01:35;50.10;;;19.40;;
55758;SDS011;41678;52.126;20.664;2024-03-22T08:06:55;59.50;;;20.90;;
55758;SDS011;41678;52.126;20.664;2024-03-22T08:12:16;47.80;;;18.53;;
55758;SDS011;41678;52.126;20.664;2024-03-22T08:17:38;43.85;;;17.38;;
55758;SDS011;41678;52.126;20.664;2024-03-22T08:22:58;49.22;;;19.55;;
55758;SDS011;41678;52.126;20.664;2024-03-22T08:28:18;41.05;;;15.90;;
55758;SDS011;41678;52.126;20.664;2024-03-22T08:33:38;35.42;;;15.75;;
55758;SDS011;41678;52.126;20.664;2024-03-22T08:38:58;42.47;;;17.40;;
55758;SDS011;41678;52.126;20.664;2024-03-22T08:44:18;32.60;;;13.65;;
55758;SDS011;41678;52.126;20.664;2024-03-22T08:49:38;44.63;;;17.52;;
55758;SDS011;41678;52.126;20.664;2024-03-22T08:55:00;41.53;;;16.67;;
55758;SDS011;41678;52.126;20.664;2024-03-22T09:00:20;38.70;;;15.70;;
55758;SDS011;41678;52.126;20.664;2024-03-22T09:05:40;38.78;;;16.52;;
55758;SDS011;41678;52.126;20.664;2024-03-22T09:11:00;36.70;;;17.42;;
55758;SDS011;41678;52.126;20.664;2024-03-22T09:16:20;42.47;;;16.85;;
55758;SDS011;41678;52.126;20.664;2024-03-22T09:21:40;40.53;;;18.27;;
55758;SDS011;41678;52.126;20.664;2024-03-22T09:26:59;42.80;;;18.58;;
55758;SDS011;41678;52.126;20.664;2024-03-22T09:32:19;39.88;;;17.20;;
55758;SDS011;41678;52.126;20.664;2024-03-22T09:37:39;39.47;;;17.38;;
55758;SDS011;41678;52.126;20.664;2024-03-22T09:43:01;37.78;;;15.80;;
55758;SDS011;41678;52.126;20.664;2024-03-22T09:48:24;37.95;;;16.92;;
55758;SDS011;41678;52.126;20.664;2024-03-22T09:53:45;37.85;;;15.13;;
55758;SDS011;41678;52.126;20.664;2024-03-22T09:59:08;36.45;;;14.50;;
55758;SDS011;41678;52.126;20.664;2024-03-22T10:04:29;32.40;;;14.27;;
55758;SDS011;41678;52.126;20.664;2024-03-22T10:09:51;33.17;;;14.23;;
55758;SDS011;41678;52.126;20.664;2024-03-22T10:15:11;36.50;;;14.65;;
55758;SDS011;41678;52.126;20.664;2024-03-22T10:20:32;32.83;;;12.27;;
55758;SDS011;41678;52.126;20.664;2024-03-22T10:25:52;26.33;;;13.27;;
55758;SDS011;41678;52.126;20.664;2024-03-22T10:31:13;33.58;;;13.93;;
55758;SDS011;41678;52.126;20.664;2024-03-22T10:36:33;38.20;;;15.20;;
55758;SDS011;41678;52.126;20.664;2024-03-22T10:41:53;31.52;;;13.88;;
55758;SDS011;41678;52.126;20.664;2024-03-22T10:47:13;30.83;;;13.98;;
55758;SDS011;41678;52.126;20.664;2024-03-22T10:52:40;26.95;;;12.98;;
55758;SDS011;41678;52.126;20.664;2024-03-22T10:58:05;26.65;;;11.27;;
55758;SDS011;41678;52.126;20.664;2024-03-22T11:03:25;29.00;;;8.68;;
55758;SDS011;41678;52.126;20.664;2024-03-22T11:08:49;22.77;;;9.90;;
55758;SDS011;41678;52.126;20.664;2024-03-22T11:14:10;35.25;;;10.65;;
55758;SDS011;41678;52.126;20.664;2024-03-22T11:19:30;19.63;;;6.95;;
55758;SDS011;41678;52.126;20.664;2024-03-22T11:24:52;19.73;;;7.53;;
55758;SDS011;41678;52.126;20.664;2024-03-22T11:30:12;16.17;;;7.53;;
55758;SDS011;41678;52.126;20.664;2024-03-22T11:35:32;24.75;;;7.97;;
55758;SDS011;41678;52.126;20.664;2024-03-22T11:40:54;17.70;;;7.55;;
55758;SDS011;41678;52.126;20.664;2024-03-22T11:46:17;11.80;;;5.63;;
55758;SDS011;41678;52.126;20.664;2024-03-22T11:51:38;17.20;;;6.75;;
55758;SDS011;41678;52.126;20.664;2024-03-22T11:56:58;29.45;;;7.97;;
55758;SDS011;41678;52.126;20.664;2024-03-22T12:02:18;16.80;;;7.35;;
55758;SDS011;41678;52.126;20.664;2024-03-22T12:07:38;17.02;;;8.90;;
55758;SDS011;41678;52.126;20.664;2024-03-22T12:13:00;22.77;;;9.13;;
55758;SDS011;41678;52.126;20.664;2024-03-22T12:18:19;22.42;;;7.90;;
55758;SDS011;41678;52.126;20.664;2024-03-22T12:23:38;16.83;;;8.32;;
55758;SDS011;41678;52.126;20.664;2024-03-22T12:28:58;19.17;;;8.80;;
55758;SDS011;41678;52.126;20.664;2024-03-22T12:34:18;20.10;;;9.82;;
55758;SDS011;41678;52.126;20.664;2024-03-22T12:39:39;24.52;;;10.27;;
55758;SDS011;41678;52.126;20.664;2024-03-22T12:44:59;26.08;;;8.85;;
55758;SDS011;41678;52.126;20.664;2024-03-22T12:50:19;24.45;;;9.50;;
55758;SDS011;41678;52.126;20.664;2024-03-22T12:55:39;24.05;;;10.00;;
55758;SDS011;41678;52.126;20.664;2024-03-22T13:00:58;39.25;;;9.55;;
55758;SDS011;41678;52.126;20.664;2024-03-22T13:06:22;20.08;;;8.73;;
55758;SDS011;41678;52.126;20.664;2024-03-22T13:11:41;20.45;;;9.30;;
55758;SDS011;41678;52.126;20.664;2024-03-22T13:17:01;29.95;;;10.50;;
55758;SDS011;41678;52.126;20.664;2024-03-22T13:22:21;24.48;;;9.98;;
55758;SDS011;41678;52.126;20.664;2024-03-22T13:27:41;30.02;;;10.77;;
55758;SDS011;41678;52.126;20.664;2024-03-22T13:33:01;23.77;;;10.20;;
55758;SDS011;41678;52.126;20.664;2024-03-22T13:38:21;26.13;;;11.18;;
55758;SDS011;41678;52.126;20.664;2024-03-22T13:43:41;25.90;;;10.88;;
55758;SDS011;41678;52.126;20.664;2024-03-22T13:49:03;21.15;;;10.00;;
55758;SDS011;41678;52.126;20.664;2024-03-22T13:54:24;29.97;;;11.97;;
55758;SDS011;41678;52.126;20.664;2024-03-22T13:59:45;24.85;;;11.30;;
55758;SDS011;41678;52.126;20.664;2024-03-22T14:05:05;27.58;;;9.85;;
55758;SDS011;41678;52.126;20.664;2024-03-22T14:10:25;23.73;;;10.10;;
55758;SDS011;41678;52.126;20.664;2024-03-22T14:15:47;30.17;;;10.90;;
55758;SDS011;41678;52.126;20.664;2024-03-22T14:21:07;21.85;;;11.65;;
55758;SDS011;41678;52.126;20.664;2024-03-22T14:26:26;30.80;;;12.18;;
55758;SDS011;41678;52.126;20.664;2024-03-22T14:31:46;33.85;;;12.40;;
55758;SDS011;41678;52.126;20.664;2024-03-22T14:37:06;30.15;;;10.70;;
55758;SDS011;41678;52.126;20.664;2024-03-22T14:42:26;25.13;;;12.68;;
55758;SDS011;41678;52.126;20.664;2024-03-22T14:47:46;36.47;;;13.02;;
55758;SDS011;41678;52.126;20.664;2024-03-22T14:53:06;26.63;;;11.18;;
55758;SDS011;41678;52.126;20.664;2024-03-22T14:58:26;23.92;;;11.43;;
55758;SDS011;41678;52.126;20.664;2024-03-22T15:03:47;24.25;;;11.38;;
55758;SDS011;41678;52.126;20.664;2024-03-22T15:09:06;25.52;;;11.88;;
55758;SDS011;41678;52.126;20.664;2024-03-22T15:14:29;24.83;;;12.18;;
55758;SDS011;41678;52.126;20.664;2024-03-22T15:19:49;25.65;;;10.80;;
55758;SDS011;41678;52.126;20.664;2024-03-22T15:25:09;26.52;;;11.68;;
55758;SDS011;41678;52.126;20.664;2024-03-22T15:30:28;23.50;;;12.32;;
55758;SDS011;41678;52.126;20.664;2024-03-22T15:35:48;28.45;;;10.80;;
55758;SDS011;41678;52.126;20.664;2024-03-22T15:41:09;29.27;;;11.75;;
55758;SDS011;41678;52.126;20.664;2024-03-22T15:46:30;25.73;;;12.43;;
55758;SDS011;41678;52.126;20.664;2024-03-22T15:51:49;26.15;;;11.70;;
55758;SDS011;41678;52.126;20.664;2024-03-22T15:57:09;28.98;;;12.60;;
55758;SDS011;41678;52.126;20.664;2024-03-22T16:02:29;29.42;;;12.77;;
55758;SDS011;41678;52.126;20.664;2024-03-22T16:07:48;22.38;;;9.68;;
55758;SDS011;41678;52.126;20.664;2024-03-22T16:13:08;27.00;;;10.05;;
55758;SDS011;41678;52.126;20.664;2024-03-22T16:18:29;25.45;;;11.93;;
55758;SDS011;41678;52.126;20.664;2024-03-22T16:23:49;22.63;;;11.32;;
55758;SDS011;41678;52.126;20.664;2024-03-22T16:29:08;26.70;;;10.82;;
55758;SDS011;41678;52.126;20.664;2024-03-22T16:34:28;24.70;;;11.73;;
55758;SDS011;41678;52.126;20.664;2024-03-22T16:39:48;24.17;;;11.90;;
55758;SDS011;41678;52.126;20.664;2024-03-22T16:45:08;48.53;;;18.73;;
55758;SDS011;41678;52.126;20.664;2024-03-22T16:50:28;44.10;;;16.55;;
55758;SDS011;41678;52.126;20.664;2024-03-22T16:55:48;54.80;;;19.92;;
55758;SDS011;41678;52.126;20.664;2024-03-22T17:01:09;63.83;;;24.58;;
55758;SDS011;41678;52.126;20.664;2024-03-22T17:06:29;32.75;;;15.20;;
55758;SDS011;41678;52.126;20.664;2024-03-22T17:11:49;49.65;;;20.33;;
55758;SDS011;41678;52.126;20.664;2024-03-22T17:17:08;32.72;;;14.55;;
55758;SDS011;41678;52.126;20.664;2024-03-22T17:22:28;37.25;;;16.65;;
55758;SDS011;41678;52.126;20.664;2024-03-22T17:27:49;26.60;;;14.32;;
55758;SDS011;41678;52.126;20.664;2024-03-22T17:33:09;33.97;;;11.43;;
55758;SDS011;41678;52.126;20.664;2024-03-22T17:38:29;21.30;;;9.50;;
55758;SDS011;41678;52.126;20.664;2024-03-22T17:43:49;21.45;;;10.30;;
55758;SDS011;41678;52.126;20.664;2024-03-22T17:49:11;39.38;;;15.88;;
55758;SDS011;41678;52.126;20.664;2024-03-22T17:54:32;26.43;;;10.67;;
55758;SDS011;41678;52.126;20.664;2024-03-22T17:59:52;26.75;;;12.90;;
55758;SDS011;41678;52.126;20.664;2024-03-22T18:05:11;32.50;;;12.55;;
55758;SDS011;41678;52.126;20.664;2024-03-22T18:10:32;25.77;;;11.90;;
55758;SDS011;41678;52.126;20.664;2024-03-22T18:15:52;22.92;;;10.18;;
55758;SDS011;41678;52.126;20.664;2024-03-22T18:21:11;21.08;;;9.38;;
55758;SDS011;41678;52.126;20.664;2024-03-22T18:26:31;26.25;;;10.40;;
55758;SDS011;41678;52.126;20.664;2024-03-22T18:31:51;26.83;;;10.30;;
55758;SDS011;41678;52.126;20.664;2024-03-22T18:37:10;35.58;;;11.77;;
55758;SDS011;41678;52.126;20.664;2024-03-22T18:42:30;25.52;;;11.90;;
55758;SDS011;41678;52.126;20.664;2024-03-22T18:47:51;27.42;;;12.23;;
55758;SDS011;41678;52.126;20.664;2024-03-22T18:53:10;36.38;;;13.63;;
55758;SDS011;41678;52.126;20.664;2024-03-22T18:58:31;39.33;;;17.80;;
55758;SDS011;41678;52.126;20.664;2024-03-22T19:03:50;21.17;;;10.80;;
55758;SDS011;41678;52.126;20.664;2024-03-22T19:09:10;23.83;;;10.68;;
55758;SDS011;41678;52.126;20.664;2024-03-22T19:14:30;26.50;;;13.00;;
55758;SDS011;41678;52.126;20.664;2024-03-22T19:19:51;29.90;;;11.88;;
55758;SDS011;41678;52.126;20.664;2024-03-22T19:25:10;24.92;;;11.15;;
55758;SDS011;41678;52.126;20.664;2024-03-22T19:30:30;22.42;;;8.57;;
55758;SDS011;41678;52.126;20.664;2024-03-22T19:35:50;25.20;;;8.75;;
55758;SDS011;41678;52.126;20.664;2024-03-22T19:41:10;28.73;;;12.65;;
55758;SDS011;41678;52.126;20.664;2024-03-22T19:46:30;23.35;;;8.98;;
55758;SDS011;41678;52.126;20.664;2024-03-22T19:51:49;34.22;;;11.10;;
55758;SDS011;41678;52.126;20.664;2024-03-22T19:57:09;24.75;;;10.88;;
55758;SDS011;41678;52.126;20.664;2024-03-22T20:02:30;26.17;;;12.10;;
55758;SDS011;41678;52.126;20.664;2024-03-22T20:07:49;21.13;;;9.20;;
55758;SDS011;41678;52.126;20.664;2024-03-22T20:13:09;27.60;;;10.57;;
55758;SDS011;41678;52.126;20.664;2024-03-22T20:18:29;22.38;;;10.05;;
55758;SDS011;41678;52.126;20.664;2024-03-22T20:23:49;27.15;;;9.70;;
55758;SDS011;41678;52.126;20.664;2024-03-22T20:29:09;23.10;;;10.55;;
55758;SDS011;41678;52.126;20.664;2024-03-22T20:34:29;25.88;;;10.82;;
